Time;durP1;ratioP1;P1;durP2;ratioP2;P2;SDS_P1;SDS_P2;PMS_P1;PMS_P2;Temp;Humidity;BMP_temperature;BMP_pressure;BME280_temperature;BME280_humidity;BME280_pressure;Samples;Min_cycle;Max_cycle;Signal;HPM_P1;HPM_P2
2021/04/11 00:00:38;;;;;;;11.93;9.57;;;3.60;93.50;;;;;;5112660;28;20044;-67
2021/04/11 00:03:07;;;;;;;14.18;8.95;;;3.60;93.50;;;;;;5113346;28;20467;-67
2021/04/11 00:05:38;;;;;;;12.32;8.65;;;3.60;93.30;;;;;;5113357;28;20401;-67
2021/04/11 00:08:05;;;;;;;10.45;6.97;;;3.60;93.50;;;;;;5113192;28;20454;-67
2021/04/11 00:10:35;;;;;;;12.25;7.75;;;3.60;93.60;;;;;;5113756;28;20428;-67
2021/04/11 00:13:03;;;;;;;10.68;8.07;;;3.60;93.60;;;;;;5112481;28;20051;-67
2021/04/11 00:15:30;;;;;;;10.48;8.32;;;3.60;93.50;;;;;;5113878;28;20043;-67
2021/04/11 00:17:56;;;;;;;9.80;7.50;;;3.60;93.50;;;;;;5113047;28;20061;-67
2021/04/11 00:20:22;;;;;;;14.70;8.73;;;3.60;93.60;;;;;;5112767;28;20081;-67
2021/04/11 00:22:51;;;;;;;10.02;7.90;;;3.70;93.50;;;;;;5113262;28;20047;-67
2021/04/11 00:25:29;;;;;;;10.77;8.10;;;3.70;93.50;;;;;;5113202;28;20519;-67
2021/04/11 00:27:55;;;;;;;11.55;8.02;;;3.70;93.50;;;;;;5111665;28;20043;-67
2021/04/11 00:30:22;;;;;;;11.23;8.50;;;3.70;93.60;;;;;;5113341;28;20055;-67
2021/04/11 00:32:49;;;;;;;10.93;8.77;;;3.70;93.50;;;;;;5113165;28;20732;-67
2021/04/11 00:35:16;;;;;;;10.20;7.95;;;3.70;93.60;;;;;;5112170;28;20047;-67
2021/04/11 00:37:42;;;;;;;13.90;7.95;;;3.70;93.70;;;;;;5112816;28;20542;-67
2021/04/11 00:40:20;;;;;;;12.53;8.77;;;3.70;93.60;;;;;;5113031;28;20047;-67
2021/04/11 00:42:52;;;;;;;8.45;7.45;;;3.70;93.50;;;;;;5112616;28;20056;-67
2021/04/11 00:45:36;;;;;;;13.68;8.80;;;3.80;93.50;;;;;;5112926;28;20257;-67
2021/04/11 00:48:03;;;;;;;11.03;7.90;;;3.80;93.50;;;;;;5111710;28;20051;-67
2021/04/11 00:50:28;;;;;;;8.00;6.85;;;3.80;93.50;;;;;;5113122;28;20345;-67
2021/04/11 00:52:56;;;;;;;9.80;7.43;;;3.80;93.50;;;;;;5112801;28;20082;-67
2021/04/11 00:55:23;;;;;;;12.57;7.95;;;3.80;93.50;;;;;;5112274;28;20044;-66
2021/04/11 00:57:50;;;;;;;12.52;8.10;;;3.80;93.60;;;;;;5112609;28;20154;-67
2021/04/11 01:00:17;;;;;;;12.63;8.50;;;3.80;93.60;;;;;;5112475;28;20059;-67
2021/04/11 01:02:43;;;;;;;11.23;8.55;;;3.90;93.60;;;;;;5111531;28;20503;-67
2021/04/11 01:05:27;;;;;;;9.30;7.37;;;3.90;93.80;;;;;;5112461;28;20151;-67
2021/04/11 01:07:54;;;;;;;9.17;6.67;;;3.90;93.70;;;;;;5112451;28;20126;-67
2021/04/11 01:10:26;;;;;;;9.60;6.25;;;3.90;93.70;;;;;;5111883;28;20353;-67
2021/04/11 01:12:54;;;;;;;7.25;5.15;;;3.90;93.60;;;;;;5112455;28;20062;-67
2021/04/11 01:15:26;;;;;;;8.53;5.40;;;3.90;93.60;;;;;;5112825;28;20394;-67
2021/04/11 01:17:52;;;;;;;;;;;3.90;93.40;;;;;;5111885;28;20301;-67
2021/04/11 01:20:19;;;;;;;8.38;4.97;;;3.90;93.50;;;;;;5112254;28;19920;-67
2021/04/11 01:23:10;;;;;;;7.40;4.90;;;3.90;93.30;;;;;;5111436;28;20073;-67
2021/04/11 01:25:38;;;;;;;7.30;5.07;;;3.90;93.30;;;;;;5112220;28;20468;-67
2021/04/11 01:28:19;;;;;;;7.32;5.13;;;3.90;93.10;;;;;;5111982;28;20051;-67
2021/04/11 01:30:46;;;;;;;5.72;5.10;;;3.90;93.10;;;;;;5111538;28;20079;-67
2021/04/11 01:33:17;;;;;;;6.60;5.60;;;3.80;93.20;;;;;;5112041;28;20044;-67
2021/04/11 01:35:46;;;;;;;8.70;5.63;;;3.80;93.20;;;;;;5111963;28;20781;-67
2021/04/11 01:38:13;;;;;;;5.72;5.15;;;3.80;93.20;;;;;;5110255;28;20071;-67
2021/04/11 01:41:03;;;;;;;6.32;5.32;;;3.80;93.40;;;;;;5112093;28;20047;-67
2021/04/11 01:43:30;;;;;;;6.20;5.60;;;3.80;93.50;;;;;;5112306;28;20047;-67
2021/04/11 01:45:56;;;;;;;10.40;7.43;;;3.80;93.30;;;;;;5110998;28;20046;-67
2021/04/11 01:48:24;;;;;;;8.68;6.20;;;3.80;93.30;;;;;;5111947;28;20475;-67
2021/04/11 01:50:51;;;;;;;7.50;6.70;;;3.80;93.50;;;;;;5110947;28;20134;-67
2021/04/11 01:53:18;;;;;;;7.18;6.45;;;3.80;93.40;;;;;;5111835;28;20043;-67
2021/04/11 01:55:44;;;;;;;9.82;6.40;;;3.80;93.40;;;;;;5111849;28;20134;-67
2021/04/11 01:58:11;;;;;;;6.85;5.60;;;3.80;93.50;;;;;;5111020;28;20047;-67
2021/04/11 02:00:41;;;;;;;7.50;6.70;;;3.70;93.70;;;;;;5111968;28;20075;-67
2021/04/11 02:03:12;;;;;;;7.88;5.95;;;3.80;93.70;;;;;;5111618;28;20300;-67
2021/04/11 02:05:40;;;;;;;7.88;5.07;;;3.80;93.70;;;;;;5111429;28;20066;-67
2021/04/11 02:08:09;;;;;;;6.97;5.10;;;3.80;93.80;;;;;;5111662;28;20416;-67
2021/04/11 02:10:38;;;;;;;9.75;5.38;;;3.70;94.10;;;;;;5111929;28;20047;-66
2021/04/11 02:13:04;;;;;;;6.10;4.55;;;3.70;94.00;;;;;;5110714;28;20040;-67
2021/04/11 02:15:35;;;;;;;8.00;5.35;;;3.70;94.10;;;;;;5111759;28;20560;-67
2021/04/11 02:18:01;;;;;;;6.57;5.32;;;3.70;94.30;;;;;;5111237;28;20051;-67
2021/04/11 02:20:30;;;;;;;7.23;6.00;;;3.70;94.40;;;;;;5111226;28;20047;-67
2021/04/11 02:22:57;;;;;;;6.80;5.30;;;3.70;94.40;;;;;;5111111;28;20500;-67
2021/04/11 02:25:26;;;;;;;6.03;5.10;;;3.70;94.20;;;;;;5111846;28;20351;-67
2021/04/11 02:27:53;;;;;;;7.50;4.95;;;3.80;94.30;;;;;;5110678;28;20047;-67
2021/04/11 02:30:21;;;;;;;8.67;5.00;;;3.70;94.20;;;;;;5111379;28;20055;-67
2021/04/11 02:32:48;;;;;;;8.10;4.07;;;3.70;94.40;;;;;;5111623;28;20296;-67
2021/04/11 02:35:17;;;;;;;7.43;5.65;;;3.70;94.70;;;;;;5110866;28;20305;-67
2021/04/11 02:37:49;;;;;;;6.80;4.60;;;3.70;94.60;;;;;;5111272;28;20507;-67
2021/04/11 02:40:23;;;;;;;6.00;5.32;;;3.80;94.60;;;;;;5110617;28;20378;-67
2021/04/11 02:42:48;;;;;;;6.37;5.73;;;3.70;94.60;;;;;;5111360;28;20044;-67
2021/04/11 02:45:24;;;;;;;6.63;5.93;;;3.80;94.60;;;;;;5111125;28;20821;-67
2021/04/11 02:47:54;;;;;;;10.37;6.67;;;3.80;94.50;;;;;;5110600;28;20040;-67
2021/04/11 02:50:22;;;;;;;7.83;5.50;;;3.80;94.60;;;;;;5113314;28;20651;-67
2021/04/11 02:53:01;;;;;;;8.35;6.00;;;3.80;94.60;;;;;;5115129;28;20285;-67
2021/04/11 02:55:30;;;;;;;5.60;3.30;;;3.80;94.80;;;;;;5114506;28;20051;-67
2021/04/11 02:57:56;;;;;;;5.20;3.70;;;3.80;94.80;;;;;;5114824;28;20044;-67
2021/04/11 03:00:25;;;;;;;6.72;3.00;;;3.80;94.70;;;;;;5115338;28;20314;-67
2021/04/11 03:02:50;;;;;;;6.53;3.33;;;3.80;94.80;;;;;;5114147;28;20085;-67
2021/04/11 03:05:20;;;;;;;7.33;3.27;;;3.70;94.70;;;;;;5114786;28;20337;-67
2021/04/11 03:07:48;;;;;;;6.03;3.13;;;3.70;94.70;;;;;;5115114;28;20475;-67
2021/04/11 03:10:53;;;;;;;5.27;3.40;;;3.70;94.80;;;;;;5114050;28;20305;-66
2021/04/11 03:13:20;;;;;;;5.20;3.35;;;3.70;94.80;;;;;;5105098;28;20300;-67
2021/04/11 03:15:48;;;;;;;5.13;3.77;;;3.70;94.90;;;;;;5113934;28;20047;-67
2021/04/11 03:18:14;;;;;;;7.00;3.40;;;3.70;94.80;;;;;;5114230;28;20301;-67
2021/04/11 03:20:41;;;;;;;7.40;4.00;;;3.70;94.90;;;;;;5114952;28;20301;-67
2021/04/11 03:23:10;;;;;;;7.10;3.65;;;3.70;95.00;;;;;;5113763;28;20408;-67
2021/04/11 03:25:39;;;;;;;5.75;4.03;;;3.70;95.00;;;;;;5114552;28;20048;-67
2021/04/11 03:28:15;;;;;;;3.75;2.70;;;3.70;94.90;;;;;;5114025;28;20044;-67
2021/04/11 03:31:03;;;;;;;6.60;3.53;;;3.70;95.50;;;;;;5113601;28;20051;-67
2021/04/11 03:33:33;;;;;;;4.20;3.08;;;3.70;94.90;;;;;;5114624;28;20289;-67
2021/04/11 03:36:00;;;;;;;6.57;3.40;;;3.60;94.80;;;;;;5113953;28;20051;-67
2021/04/11 03:38:28;;;;;;;7.57;3.97;;;3.60;95.00;;;;;;5113670;28;20051;-67
2021/04/11 03:40:57;;;;;;;5.77;4.20;;;3.60;94.90;;;;;;5114102;28;20450;-66
2021/04/11 03:43:32;;;;;;;6.50;3.53;;;3.60;94.90;;;;;;5113754;28;20293;-67
2021/04/11 03:46:03;;;;;;;5.20;3.47;;;3.60;95.10;;;;;;5113978;28;20313;-67
2021/04/11 03:48:33;;;;;;;5.10;3.67;;;3.60;94.90;;;;;;5114287;28;20298;-66
2021/04/11 03:51:04;;;;;;;5.50;4.03;;;3.60;94.90;;;;;;5113027;28;20124;-67
2021/04/11 03:54:11;;;;;;;8.68;4.32;;;3.60;95.10;;;;;;5114105;28;20047;-66
2021/04/11 03:56:46;;;;;;;5.45;3.85;;;3.60;95.00;;;;;;5051215;28;20053;-67
2021/04/11 03:59:25;;;;;;;5.03;3.17;;;3.60;95.00;;;;;;5103746;28;20130;-67
2021/04/11 04:01:57;;;;;;;4.85;3.33;;;3.50;95.20;;;;;;5112577;28;20078;-66
2021/04/11 04:04:25;;;;;;;3.83;3.17;;;3.60;95.20;;;;;;5113302;28;20126;-67
2021/04/11 04:07:12;;;;;;;4.78;3.63;;;3.50;95.30;;;;;;5113739;28;20303;-67
2021/04/11 04:09:38;;;;;;;4.18;3.30;;;3.50;95.30;;;;;;5113887;28;20058;-66
2021/04/11 04:12:22;;;;;;;5.15;3.25;;;3.50;95.30;;;;;;5112316;28;20547;-66
2021/04/11 04:15:04;;;;;;;5.78;3.38;;;3.50;95.30;;;;;;5113680;28;20054;-67
2021/04/11 04:17:56;;;;;;;4.05;3.58;;;3.50;95.50;;;;;;5113359;28;20476;-68
2021/04/11 04:20:34;;;;;;;5.75;3.42;;;3.50;95.60;;;;;;5112847;28;20051;-67
2021/04/11 04:23:30;;;;;;;4.75;3.83;;;3.50;95.50;;;;;;5112951;28;20476;-66
2021/04/11 04:26:08;;;;;;;4.68;4.03;;;3.50;95.40;;;;;;5112233;28;20073;-66
2021/04/11 04:28:51;;;;;;;5.60;4.32;;;3.50;95.50;;;;;;5113227;28;20456;-66
2021/04/11 04:31:46;;;;;;;6.40;3.90;;;3.50;95.50;;;;;;5113321;28;20131;-66
2021/04/11 04:34:32;;;;;;;6.28;3.92;;;3.50;95.40;;;;;;5112274;28;20083;-66
2021/04/11 04:37:26;;;;;;;5.43;3.40;;;3.50;95.50;;;;;;5112524;28;20519;-66
2021/04/11 04:40:04;;;;;;;6.53;4.25;;;3.50;95.70;;;;;;5111479;28;20885;-66
2021/04/11 04:42:45;;;;;;;8.90;4.63;;;3.40;95.70;;;;;;5112971;28;20094;-66
2021/04/11 04:45:31;;;;;;;7.35;5.13;;;3.50;95.60;;;;;;5112841;28;20118;-66
2021/04/11 04:48:18;;;;;;;6.03;4.53;;;3.50;95.60;;;;;;5110925;28;20149;-66
2021/04/11 04:51:00;;;;;;;6.00;4.18;;;3.50;95.70;;;;;;5112866;28;20054;-67
2021/04/11 04:53:41;;;;;;;6.80;3.92;;;3.50;95.80;;;;;;5113066;28;20119;-67
2021/04/11 04:56:10;;;;;;;11.85;4.55;;;3.50;95.70;;;;;;5112557;28;20051;-67
2021/04/11 04:58:48;;;;;;;5.30;3.67;;;3.50;95.70;;;;;;5113033;28;20044;-66
2021/04/11 05:01:26;;;;;;;6.55;3.13;;;3.50;95.90;;;;;;5111832;28;20051;-66
2021/04/11 05:04:00;;;;;;;4.50;3.65;;;3.50;95.80;;;;;;5112427;28;20487;-66
2021/04/11 05:06:39;;;;;;;6.23;3.17;;;3.60;95.80;;;;;;5112603;28;20553;-67
2021/04/11 05:09:10;;;;;;;5.33;3.00;;;3.60;95.90;;;;;;5111624;28;20302;-66
2021/04/11 05:11:46;;;;;;;7.65;2.53;;;3.60;95.70;;;;;;5112658;28;20328;-66
2021/04/11 05:14:22;;;;;;;3.73;2.23;;;3.60;95.70;;;;;;5111981;28;20488;-66
2021/04/11 05:16:52;;;;;;;4.93;2.15;;;3.60;95.80;;;;;;5111392;28;20294;-66
2021/04/11 05:19:36;;;;;;;3.45;2.60;;;3.60;95.70;;;;;;5111899;28;20055;-66
2021/04/11 05:22:10;;;;;;;4.07;2.00;;;3.60;95.50;;;;;;5111347;28;20044;-67
2021/04/11 05:24:45;;;;;;;3.30;1.93;;;3.60;95.60;;;;;;5112045;28;20754;-66
2021/04/11 05:27:20;;;;;;;4.20;2.33;;;3.60;95.60;;;;;;5112032;28;20297;-66
2021/04/11 05:29:56;;;;;;;3.95;2.30;;;3.60;95.60;;;;;;5111332;28;20341;-67
2021/04/11 05:32:22;;;;;;;2.33;1.87;;;3.60;95.50;;;;;;5112385;28;20051;-66
2021/04/11 05:34:49;;;;;;;7.20;2.83;;;3.60;95.60;;;;;;5112105;28;20331;-66
2021/04/11 05:37:30;;;;;;;4.32;2.30;;;3.60;95.50;;;;;;5111275;28;20301;-66
2021/04/11 05:40:03;;;;;;;4.30;2.35;;;3.60;95.50;;;;;;5111548;28;20071;-66
2021/04/11 05:42:34;;;;;;;6.00;2.72;;;3.60;95.50;;;;;;5112075;28;20508;-66
2021/04/11 05:45:15;;;;;;;3.10;2.30;;;3.60;95.50;;;;;;5110965;28;20082;-66
2021/04/11 05:47:40;;;;;;;4.10;1.40;;;3.50;95.40;;;;;;5111944;28;20070;-67
2021/04/11 05:50:25;;;;;;;4.03;2.17;;;3.50;95.40;;;;;;5110934;28;20105;-66
2021/04/11 05:53:11;;;;;;;4.47;2.30;;;3.50;95.40;;;;;;5111941;28;20143;-66
2021/04/11 05:55:41;;;;;;;4.18;2.10;;;3.50;95.40;;;;;;5112101;28;20131;-66
2021/04/11 05:58:14;;;;;;;3.63;2.35;;;3.50;95.40;;;;;;5110937;28;20428;-66
2021/04/11 06:01:12;;;;;;;5.03;2.63;;;3.40;95.40;;;;;;5111934;28;20412;-66
2021/04/11 06:04:04;;;;;;;6.50;2.50;;;3.50;95.40;;;;;;5111999;28;20104;-66
2021/04/11 06:06:32;;;;;;;;;;;3.50;95.40;;;;;;5101163;28;20051;-66
2021/04/11 06:09:03;;;;;;;4.03;2.83;;;3.50;95.70;;;;;;5111188;28;20022;-66
2021/04/11 06:11:38;;;;;;;9.35;3.75;;;3.50;95.50;;;;;;5111295;28;20040;-66
2021/04/11 06:14:17;;;;;;;4.55;2.40;;;3.50;95.40;;;;;;5111379;28;20061;-66
2021/04/11 06:16:43;;;;;;;4.38;2.40;;;3.50;95.20;;;;;;5111308;28;20496;-66
2021/04/11 06:19:09;;;;;;;4.95;2.42;;;3.50;95.20;;;;;;5110562;28;20138;-66
2021/04/11 06:21:49;;;;;;;5.18;2.47;;;3.50;95.20;;;;;;5111731;28;20445;-66
2021/04/11 06:24:27;;;;;;;4.60;2.72;;;3.60;95.20;;;;;;5111859;28;20434;-66
2021/04/11 06:27:25;;;;;;;4.80;2.20;;;3.50;95.00;;;;;;5114904;28;20044;-66
2021/04/11 06:30:14;;;;;;;4.23;2.03;;;3.50;94.90;;;;;;5115262;28;20073;-66
2021/04/11 06:32:50;;;;;;;4.73;2.13;;;3.60;94.90;;;;;;5115084;28;20301;-66
2021/04/11 06:35:22;;;;;;;3.83;2.08;;;3.60;94.70;;;;;;5115393;28;20319;-67
2021/04/11 06:37:56;;;;;;;5.10;2.65;;;3.60;94.70;;;;;;5115291;28;20410;-66
2021/04/11 06:41:00;;;;;;;4.37;2.10;;;3.60;94.80;;;;;;5114629;28;20469;-66
2021/04/11 06:43:37;;;;;;;5.25;2.47;;;3.60;94.70;;;;;;5115420;28;20298;-66
2021/04/11 06:46:22;;;;;;;3.05;2.00;;;3.60;94.60;;;;;;5114663;28;20068;-66
2021/04/11 06:49:17;;;;;;;3.83;1.95;;;3.60;94.70;;;;;;5114997;28;20132;-66
2021/04/11 06:52:10;;;;;;;4.10;1.30;;;3.60;94.60;;;;;;5115126;28;20088;-66
2021/04/11 06:55:01;;;;;;;6.33;1.93;;;3.60;94.40;;;;;;5114528;28;20319;-66
2021/04/11 06:57:36;;;;;;;4.60;1.53;;;3.70;94.40;;;;;;5115332;28;20638;-66
2021/04/11 07:00:34;;;;;;;6.00;1.75;;;3.70;94.30;;;;;;5115045;28;20773;-66
2021/04/11 07:03:19;;;;;;;3.95;1.50;;;3.70;94.10;;;;;;5090535;28;20899;-66
2021/04/11 07:06:00;;;;;;;5.70;1.95;;;3.80;94.10;;;;;;5114790;28;20039;-66
2021/04/11 07:08:58;;;;;;;4.78;1.92;;;3.80;93.90;;;;;;5114405;28;20131;-66
2021/04/11 07:11:50;;;;;;;6.53;1.90;;;3.90;93.80;;;;;;5114945;28;20043;-66
2021/04/11 07:14:34;;;;;;;;;;;3.90;93.60;;;;;;5114380;28;20044;-66
2021/04/11 07:17:33;;;;;;;5.53;1.83;;;3.90;93.40;;;;;;5114277;28;19922;-66
2021/04/11 07:20:19;;;;;;;6.83;2.23;;;3.90;93.30;;;;;;5113908;28;20802;-66
2021/04/11 07:23:28;;;;;;;6.83;2.03;;;4.00;93.00;;;;;;5113789;28;20379;-66
2021/04/11 07:26:18;;;;;;;6.97;1.90;;;4.00;93.20;;;;;;5114268;28;20301;-65
2021/04/11 07:29:02;;;;;;;6.85;1.42;;;4.10;93.00;;;;;;5113503;28;20377;-66
2021/04/11 07:31:43;;;;;;;6.18;1.60;;;4.10;93.00;;;;;;5114534;28;20059;-66
2021/04/11 07:34:22;;;;;;;4.60;1.50;;;4.10;92.90;;;;;;5114204;28;20047;-66
2021/04/11 07:37:10;;;;;;;10.13;1.83;;;4.10;92.90;;;;;;5113490;28;20289;-66
2021/04/11 07:39:53;;;;;;;7.97;2.20;;;4.20;92.90;;;;;;5114318;28;20778;-66
2021/04/11 07:42:27;;;;;;;4.20;1.83;;;4.20;92.90;;;;;;5113948;28;20301;-66
2021/04/11 07:45:12;;;;;;;4.43;2.03;;;4.20;92.90;;;;;;5113837;28;20305;-66
2021/04/11 07:48:16;;;;;;;5.40;1.77;;;4.20;92.70;;;;;;5114198;28;20322;-66
2021/04/11 07:51:06;;;;;;;8.80;2.57;;;4.10;92.60;;;;;;5099366;28;20320;-66
2021/04/11 07:54:00;;;;;;;4.17;2.10;;;4.10;92.60;;;;;;5114283;28;20373;-66
2021/04/11 07:56:50;;;;;;;5.80;1.90;;;4.10;92.30;;;;;;5113443;28;20692;-66
2021/04/11 07:59:55;;;;;;;5.13;1.70;;;4.10;92.00;;;;;;5113574;28;20662;-66
2021/04/11 08:02:38;;;;;;;3.57;1.30;;;4.10;92.10;;;;;;5114279;28;20294;-66
2021/04/11 08:05:29;;;;;;;6.50;1.50;;;4.20;92.20;;;;;;5112430;28;20321;-66
2021/04/11 08:08:04;;;;;;;4.63;1.43;;;4.20;91.90;;;;;;5113105;28;20336;-66
2021/04/11 08:11:03;;;;;;;8.20;1.93;;;4.20;91.80;;;;;;5113235;28;20317;-66
2021/04/11 08:14:09;;;;;;;7.20;1.73;;;4.30;91.70;;;;;;5113646;28;20304;-66
2021/04/11 08:17:10;;;;;;;4.37;1.83;;;4.30;91.50;;;;;;5113827;28;20292;-66
2021/04/11 08:20:06;;;;;;;6.40;1.97;;;4.40;91.50;;;;;;5112609;28;20349;-66
2021/04/11 08:22:56;;;;;;;3.73;1.73;;;4.50;91.40;;;;;;5113375;28;20662;-66
2021/04/11 08:25:25;;;;;;;6.17;1.77;;;4.50;91.20;;;;;;5112798;28;20557;-66
2021/04/11 08:28:18;;;;;;;8.73;1.93;;;4.50;91.40;;;;;;5113060;28;20309;-66
2021/04/11 08:31:19;;;;;;;6.27;1.77;;;4.60;91.30;;;;;;5112868;28;20325;-66
2021/04/11 08:33:59;;;;;;;4.13;1.52;;;4.70;91.30;;;;;;5112100;28;20692;-66
2021/04/11 08:36:29;;;;;;;6.87;1.60;;;4.70;90.90;;;;;;5113271;28;20533;-66
2021/04/11 08:39:11;;;;;;;8.87;2.10;;;4.80;91.10;;;;;;5111544;28;20942;-66
2021/04/11 08:41:49;;;;;;;6.00;2.08;;;4.90;90.90;;;;;;5113265;28;20289;-66
2021/04/11 08:44:31;;;;;;;5.37;1.50;;;4.90;90.30;;;;;;5111524;28;20051;-65
2021/04/11 08:47:09;;;;;;;5.13;1.77;;;4.80;90.30;;;;;;5111533;28;20431;-66
2021/04/11 08:49:49;;;;;;;5.30;2.05;;;4.80;90.30;;;;;;5113730;28;20321;-66
2021/04/11 08:52:56;;;;;;;3.30;1.60;;;4.80;90.70;;;;;;5112519;28;20076;-66
2021/04/11 08:55:32;;;;;;;6.50;2.00;;;4.90;90.10;;;;;;5112747;28;20293;-65
2021/04/11 08:58:01;;;;;;;5.93;1.47;;;4.90;89.90;;;;;;5112204;28;20331;-66
2021/04/11 09:00:50;;;;;;;4.90;1.37;;;5.00;90.00;;;;;;5111964;28;20309;-66
2021/04/11 09:03:46;;;;;;;5.93;1.20;;;5.00;90.20;;;;;;5112480;28;20301;-66
2021/04/11 09:06:34;;;;;;;6.27;2.10;;;5.20;90.20;;;;;;5112145;28;20305;-66
2021/04/11 09:09:33;;;;;;;5.53;1.40;;;5.10;88.50;;;;;;5111270;28;20309;-66
2021/04/11 09:12:13;;;;;;;5.03;1.73;;;5.10;88.70;;;;;;5112061;28;20792;-66
2021/04/11 09:15:11;;;;;;;5.97;1.60;;;5.00;87.30;;;;;;5112066;28;20313;-66
2021/04/11 09:17:44;;;;;;;4.70;2.33;;;5.00;88.00;;;;;;5112555;27;20329;-66
2021/04/11 09:20:17;;;;;;;4.30;1.57;;;5.10;89.30;;;;;;5112206;28;20434;-66
2021/04/11 09:23:21;;;;;;;5.27;1.70;;;5.20;88.60;;;;;;5111155;28;20631;-66
2021/04/11 09:26:02;;;;;;;3.57;1.40;;;5.20;87.30;;;;;;5112047;28;20293;-66
2021/04/11 09:28:48;;;;;;;5.87;1.93;;;5.10;88.20;;;;;;5111279;28;20793;-67
2021/04/11 09:31:27;;;;;;;5.87;1.50;;;5.10;88.70;;;;;;5111791;28;20301;-66
2021/04/11 09:34:25;;;;;;;2.13;1.63;;;5.00;88.40;;;;;;5112032;28;20293;-66
2021/04/11 09:37:26;;;;;;;3.27;2.03;;;5.00;88.60;;;;;;5111400;28;20294;-66
2021/04/11 09:40:21;;;;;;;8.53;2.07;;;5.00;88.30;;;;;;5111848;28;20290;-66
2021/04/11 09:43:24;;;;;;;6.93;2.27;;;5.00;88.50;;;;;;5110955;28;20380;-66
2021/04/11 09:45:59;;;;;;;8.13;2.53;;;5.00;88.90;;;;;;5111570;28;20308;-66
2021/04/11 09:48:53;;;;;;;10.40;3.70;;;5.00;88.20;;;;;;5112318;28;20381;-66
2021/04/11 09:51:54;;;;;;;5.87;2.33;;;5.00;88.60;;;;;;5082473;28;20298;-66
2021/04/11 09:54:31;;;;;;;3.23;1.47;;;5.00;88.30;;;;;;5112148;28;20297;-66
2021/04/11 09:57:03;;;;;;;4.53;1.73;;;5.10;88.20;;;;;;5110682;28;20299;-67
2021/04/11 10:00:11;;;;;;;7.55;1.70;;;5.10;88.10;;;;;;5112829;28;20376;-67
2021/04/11 10:03:09;;;;;;;6.57;1.73;;;5.20;87.30;;;;;;5116261;28;20070;-67
2021/04/11 10:05:50;;;;;;;6.77;1.83;;;5.30;87.60;;;;;;5115492;28;20285;-66
2021/04/11 10:08:32;;;;;;;7.93;1.97;;;5.40;87.80;;;;;;5114046;28;20320;-67
2021/04/11 10:11:17;;;;;;;6.93;2.33;;;5.50;86.60;;;;;;5113228;28;20290;-67
2021/04/11 10:14:04;;;;;;;5.93;2.40;;;5.50;87.20;;;;;;5114637;28;20372;-67
2021/04/11 10:16:57;;;;;;;5.57;2.63;;;5.70;87.60;;;;;;5106265;28;20340;-66
2021/04/11 10:19:37;;;;;;;2.97;1.97;;;5.80;86.00;;;;;;5109496;28;20316;-66
2021/04/11 10:22:09;;;;;;;3.47;1.83;;;5.80;85.30;;;;;;5110716;28;20301;-65
2021/04/11 10:25:07;;;;;;;5.35;2.10;;;5.80;86.10;;;;;;5111054;28;20309;-65
2021/04/11 10:27:47;;;;;;;3.97;1.30;;;5.80;84.00;;;;;;5092118;28;20487;-65
2021/04/11 10:30:17;;;;;;;6.23;1.83;;;5.80;84.70;;;;;;5092076;28;20372;-65
2021/04/11 10:33:07;;;;;;;6.43;1.93;;;6.00;86.30;;;;;;5105467;28;20786;-65
2021/04/11 10:36:12;;;;;;;6.20;1.80;;;6.00;84.00;;;;;;5111556;28;20290;-64
2021/04/11 10:38:58;;;;;;;6.27;2.40;;;6.00;85.20;;;;;;5077139;28;20304;-65
2021/04/11 10:41:33;;;;;;;5.23;2.00;;;6.00;84.60;;;;;;5111034;28;20293;-66
2021/04/11 10:44:21;;;;;;;5.23;1.93;;;5.90;84.60;;;;;;5109133;28;20366;-67
2021/04/11 10:47:13;;;;;;;5.90;2.13;;;5.80;83.60;;;;;;5109744;28;20373;-67
2021/04/11 10:49:54;;;;;;;4.97;1.48;;;5.80;85.00;;;;;;5109470;28;20301;-67
2021/04/11 10:52:36;;;;;;;4.87;1.80;;;5.70;83.40;;;;;;5109051;28;20095;-67
2021/04/11 10:55:11;;;;;;;4.63;2.30;;;5.70;83.80;;;;;;5109823;28;20729;-66
2021/04/11 10:57:51;;;;;;;7.73;1.87;;;5.70;84.10;;;;;;5109038;28;20300;-67
2021/04/11 11:00:39;;;;;;;5.37;1.93;;;5.70;84.60;;;;;;5108246;28;20688;-67
2021/04/11 11:03:05;;;;;;;6.03;2.00;;;5.80;84.60;;;;;;5109748;28;20305;-68
2021/04/11 11:05:38;;;;;;;6.77;2.57;;;5.80;83.50;;;;;;5111445;28;20796;-67
2021/04/11 11:08:23;;;;;;;7.10;2.60;;;5.80;83.20;;;;;;5110091;28;20040;-66
2021/04/11 11:11:13;;;;;;;3.47;1.70;;;5.90;83.40;;;;;;5109494;28;20323;-66
2021/04/11 11:13:54;;;;;;;5.17;2.33;;;6.00;82.30;;;;;;5108301;28;20394;-65
2021/04/11 11:16:30;;;;;;;6.47;1.97;;;6.00;81.90;;;;;;5109260;28;20394;-65
2021/04/11 11:19:00;;;;;;;4.23;2.67;;;6.00;82.20;;;;;;5108175;28;20337;-68
2021/04/11 11:22:00;;;;;;;6.70;1.70;;;5.90;82.80;;;;;;5110275;28;20297;-66
2021/04/11 11:24:44;;;;;;;4.77;2.00;;;5.90;82.40;;;;;;5110981;28;20294;-66
2021/04/11 11:27:36;;;;;;;5.23;1.93;;;5.90;82.50;;;;;;5109990;28;20310;-66
2021/04/11 11:30:40;;;;;;;3.92;2.22;;;6.00;83.20;;;;;;5107984;28;20371;-65
2021/04/11 11:33:43;;;;;;;5.17;1.70;;;6.10;82.30;;;;;;5108224;28;20043;-66
2021/04/11 11:36:27;;;;;;;3.77;1.40;;;6.20;81.40;;;;;;5108555;28;20300;-66
2021/04/11 11:39:15;;;;;;;9.37;2.07;;;6.30;80.70;;;;;;5110858;28;20294;-66
2021/04/11 11:42:10;;;;;;;3.37;1.50;;;6.20;80.80;;;;;;5108274;28;20744;-67
2021/04/11 11:45:02;;;;;;;2.67;1.00;;;6.20;82.10;;;;;;5081042;28;20301;-64
2021/04/11 11:47:45;;;;;;;2.05;1.65;;;6.00;79.90;;;;;;5107349;28;20308;-65
2021/04/11 11:50:31;;;;;;;1.87;1.20;;;5.80;81.70;;;;;;5108431;28;20067;-65
2021/04/11 11:53:09;;;;;;;2.47;1.30;;;5.80;83.40;;;;;;5106729;28;20285;-65
2021/04/11 11:55:56;;;;;;;3.17;1.57;;;5.90;84.10;;;;;;5107398;28;20779;-67
2021/04/11 11:58:26;;;;;;;6.23;2.43;;;5.90;84.20;;;;;;5108723;28;20300;-66
2021/04/11 12:01:02;;;;;;;7.07;1.73;;;5.90;83.90;;;;;;5109798;28;20304;-68
2021/04/11 12:03:34;;;;;;;3.47;1.40;;;5.90;83.70;;;;;;5109229;28;20370;-69
2021/04/11 12:06:23;;;;;;;3.67;2.00;;;6.10;83.40;;;;;;5109797;28;20293;-67
2021/04/11 12:09:07;;;;;;;2.70;1.50;;;6.10;83.00;;;;;;5109714;28;20040;-67
2021/04/11 12:11:32;;;;;;;4.00;1.30;;;6.30;81.30;;;;;;5108634;28;20293;-67
2021/04/11 12:14:13;;;;;;;2.70;1.10;;;6.40;81.40;;;;;;5109185;28;20345;-67
2021/04/11 12:16:43;;;;;;;3.50;1.33;;;6.50;82.20;;;;;;5110006;28;20055;-67
2021/04/11 12:19:26;;;;;;;3.83;1.87;;;6.60;80.70;;;;;;5110102;28;20809;-66
2021/04/11 12:21:59;;;;;;;5.97;1.93;;;6.60;79.00;;;;;;5109486;28;20670;-66
2021/04/11 12:24:33;;;;;;;3.03;1.57;;;6.50;79.70;;;;;;5109276;28;20664;-66
2021/04/11 12:27:03;;;;;;;6.77;2.33;;;6.40;80.10;;;;;;5108930;27;20299;-65
2021/04/11 12:29:38;;;;;;;2.93;1.40;;;6.20;81.10;;;;;;5110036;28;20341;-68
2021/04/11 12:32:22;;;;;;;6.83;2.10;;;6.20;79.70;;;;;;5109151;28;20396;-69
2021/04/11 12:34:59;;;;;;;5.57;1.70;;;6.20;81.10;;;;;;5109485;28;20419;-68
2021/04/11 12:37:33;;;;;;;2.27;1.30;;;6.20;81.40;;;;;;5109648;28;20308;-69
2021/04/11 12:40:26;;;;;;;6.27;1.50;;;6.20;81.40;;;;;;5108287;28;20297;-66
2021/04/11 12:43:05;;;;;;;4.27;1.20;;;6.20;80.30;;;;;;5109545;28;20340;-66
2021/04/11 12:45:43;;;;;;;3.47;1.20;;;6.30;80.30;;;;;;5108687;28;20666;-65
2021/04/11 12:48:08;;;;;;;4.17;1.60;;;6.40;78.80;;;;;;5108234;28;20293;-69
2021/04/11 12:50:46;;;;;;;2.60;1.00;;;6.50;79.00;;;;;;5109021;28;20651;-68
2021/04/11 12:53:29;;;;;;;6.10;1.57;;;6.50;78.10;;;;;;5103772;28;20408;-65
2021/04/11 12:55:58;;;;;;;4.23;1.40;;;6.70;78.50;;;;;;5105751;28;20635;-65
2021/04/11 12:58:31;;;;;;;5.53;1.40;;;6.80;78.10;;;;;;5109183;28;20298;-66
2021/04/11 13:01:11;;;;;;;5.13;1.33;;;6.90;78.10;;;;;;5087693;28;20659;-66
2021/04/11 13:03:52;;;;;;;4.13;1.40;;;6.90;77.30;;;;;;5088674;28;20309;-65
2021/04/11 13:06:39;;;;;;;5.40;1.60;;;7.00;77.70;;;;;;5088175;28;20620;-65
2021/04/11 13:09:26;;;;;;;4.00;1.20;;;7.10;78.80;;;;;;5088379;28;20341;-65
2021/04/11 13:12:09;;;;;;;2.77;1.30;;;7.20;75.90;;;;;;5088045;28;20302;-66
2021/04/11 13:15:02;;;;;;;5.30;1.40;;;7.10;75.80;;;;;;5087871;28;20298;-65
2021/04/11 13:17:42;;;;;;;7.93;1.30;;;6.90;76.60;;;;;;5088547;28;20305;-66
2021/04/11 13:20:16;;;;;;;3.90;1.90;;;6.80;78.00;;;;;;5087192;28;20302;-67
2021/04/11 13:23:17;;;;;;;5.37;1.90;;;6.70;79.80;;;;;;5088614;28;20298;-69
2021/04/11 13:26:10;;;;;;;3.63;1.70;;;6.70;81.30;;;;;;5088417;28;20309;-67
2021/04/11 13:29:02;;;;;;;5.53;1.50;;;6.80;81.90;;;;;;5087628;28;20298;-68
2021/04/11 13:31:41;;;;;;;3.80;1.20;;;6.90;82.50;;;;;;5080451;28;20347;-68
2021/04/11 13:34:19;;;;;;;3.90;1.63;;;6.90;82.00;;;;;;5087565;28;20408;-68
2021/04/11 13:36:47;;;;;;;3.63;1.40;;;6.90;82.10;;;;;;5088029;28;20305;-67
2021/04/11 13:39:34;;;;;;;5.80;1.50;;;6.80;82.00;;;;;;5088457;28;20385;-68
2021/04/11 13:42:02;;;;;;;1.47;0.80;;;6.80;80.90;;;;;;5087048;28;20355;-68
2021/04/11 13:44:55;;;;;;;1.67;1.30;;;6.50;80.30;;;;;;5088094;28;20707;-68
2021/04/11 13:47:42;;;;;;;5.67;1.30;;;6.10;82.10;;;;;;5087817;28;20298;-69
2021/04/11 13:50:22;;;;;;;4.63;3.00;;;5.80;83.70;;;;;;5086984;28;20924;-68
2021/04/11 13:52:58;;;;;;;6.20;2.87;;;5.60;85.10;;;;;;5088102;28;20321;-67
2021/04/11 13:55:36;;;;;;;6.80;3.80;;;5.60;85.60;;;;;;5087088;28;20826;-66
2021/04/11 13:58:10;;;;;;;4.10;2.67;;;5.60;85.90;;;;;;5087072;28;20304;-66
2021/04/11 14:00:49;;;;;;;5.47;2.60;;;5.70;86.00;;;;;;5087390;28;20704;-67